createdAt,value
2018-08-04T00:01:17.774Z,18.60
2018-08-04T00:03:46.314Z,18.60
2018-08-04T00:06:14.912Z,18.60
2018-08-04T00:08:43.458Z,18.50
2018-08-04T00:11:12.035Z,18.50
2018-08-04T00:13:40.527Z,18.40
2018-08-04T00:16:09.086Z,18.40
2018-08-04T00:18:37.633Z,18.40
2018-08-04T00:21:06.267Z,18.40
2018-08-04T00:23:34.869Z,18.40
2018-08-04T00:26:03.480Z,18.40
2018-08-04T00:28:32.053Z,18.40
2018-08-04T00:31:01.780Z,18.40
2018-08-04T00:33:30.354Z,18.40
2018-08-04T00:35:58.891Z,18.40
2018-08-04T00:38:27.427Z,18.40
2018-08-04T00:40:55.997Z,18.30
2018-08-04T00:43:24.565Z,18.30
2018-08-04T00:45:53.163Z,18.30
2018-08-04T00:48:21.718Z,18.30
2018-08-04T00:50:50.274Z,18.30
2018-08-04T00:53:18.810Z,18.30
2018-08-04T00:55:47.352Z,18.30
2018-08-04T00:58:15.888Z,18.30
2018-08-04T01:00:44.479Z,18.20
2018-08-04T01:03:12.992Z,18.20
2018-08-04T01:05:41.510Z,18.20
2018-08-04T01:08:10.031Z,18.20
2018-08-04T01:10:38.631Z,18.10
2018-08-04T01:13:07.211Z,18.10
2018-08-04T01:15:35.811Z,18.10
2018-08-04T01:18:04.409Z,18.00
2018-08-04T01:20:32.992Z,18.00
2018-08-04T01:23:01.567Z,18.00
2018-08-04T01:25:30.083Z,18.00
2018-08-04T01:27:58.606Z,17.90
2018-08-04T01:30:27.119Z,17.90
2018-08-04T01:32:55.664Z,17.90
2018-08-04T01:35:24.245Z,17.90
2018-08-04T01:37:52.803Z,17.80
2018-08-04T01:40:21.349Z,17.80
2018-08-04T01:42:49.986Z,17.70
2018-08-04T01:45:18.533Z,17.70
2018-08-04T01:47:47.115Z,17.70
2018-08-04T01:50:15.682Z,17.60
2018-08-04T01:52:44.237Z,17.60
2018-08-04T01:55:12.848Z,17.60
2018-08-04T01:57:41.433Z,17.50
2018-08-04T02:00:10.386Z,17.50
2018-08-04T02:02:39.140Z,17.40
2018-08-04T02:05:07.715Z,17.40
2018-08-04T02:07:36.278Z,17.40
2018-08-04T02:10:04.974Z,17.40
2018-08-04T02:12:33.657Z,17.30
2018-08-04T02:15:02.276Z,17.30
2018-08-04T02:17:30.848Z,17.30
2018-08-04T02:19:59.391Z,17.30
2018-08-04T02:22:27.987Z,17.30
2018-08-04T02:24:56.590Z,17.20
2018-08-04T02:27:25.295Z,17.20
2018-08-04T02:29:53.835Z,17.20
2018-08-04T02:32:22.408Z,17.10
2018-08-04T02:34:51.006Z,17.10
2018-08-04T02:37:19.560Z,17.10
2018-08-04T02:39:48.104Z,17.10
2018-08-04T02:42:16.680Z,17.10
2018-08-04T02:44:45.212Z,17.00
2018-08-04T02:47:13.771Z,17.00
2018-08-04T02:49:42.312Z,17.00
2018-08-04T02:52:10.863Z,17.00
2018-08-04T02:54:39.439Z,17.00
2018-08-04T02:57:08.023Z,16.90
2018-08-04T02:59:36.618Z,16.90
2018-08-04T03:02:05.281Z,16.90
2018-08-04T03:04:33.896Z,16.80
2018-08-04T03:07:02.626Z,16.80
2018-08-04T03:09:31.181Z,16.80
2018-08-04T03:11:59.740Z,16.80
2018-08-04T03:14:28.281Z,16.70
2018-08-04T03:16:56.846Z,16.70
2018-08-04T03:19:25.467Z,16.70
2018-08-04T03:21:54.111Z,16.60
2018-08-04T03:24:22.927Z,16.60
2018-08-04T03:26:51.488Z,16.50
2018-08-04T03:29:20.039Z,16.50
2018-08-04T03:31:48.587Z,16.50
2018-08-04T03:34:17.154Z,16.50
2018-08-04T03:36:45.691Z,16.40
2018-08-04T03:39:14.256Z,16.40
2018-08-04T03:41:42.848Z,16.40
2018-08-04T03:44:11.404Z,16.30
2018-08-04T03:46:39.951Z,16.30
2018-08-04T03:49:08.542Z,16.30
2018-08-04T03:51:37.182Z,16.30
2018-08-04T03:54:05.770Z,16.30
2018-08-04T03:56:34.317Z,16.40
2018-08-04T03:59:02.919Z,16.40
2018-08-04T04:01:31.469Z,16.30
2018-08-04T04:04:00.007Z,16.40
2018-08-04T04:06:28.542Z,16.40
2018-08-04T04:08:57.090Z,16.40
2018-08-04T04:11:25.655Z,16.50
2018-08-04T04:13:54.212Z,16.50
2018-08-04T04:16:22.805Z,16.50
2018-08-04T04:18:51.356Z,16.60
2018-08-04T04:21:19.895Z,16.60
2018-08-04T04:23:48.422Z,16.70
2018-08-04T04:26:16.923Z,16.70
2018-08-04T04:28:45.444Z,16.80
2018-08-04T04:31:13.976Z,16.80
2018-08-04T04:33:42.497Z,16.90
2018-08-04T04:36:11.006Z,17.00
2018-08-04T04:38:39.658Z,17.20
2018-08-04T04:41:08.328Z,17.60
2018-08-04T04:43:37.012Z,17.90
2018-08-04T04:46:05.762Z,18.30
2018-08-04T04:48:34.469Z,18.60
2018-08-04T04:51:03.090Z,18.80
2018-08-04T04:53:31.678Z,19.00
2018-08-04T04:56:00.220Z,19.20
2018-08-04T04:58:28.802Z,19.20
2018-08-04T05:00:57.344Z,19.20
2018-08-04T05:03:25.914Z,19.20
2018-08-04T05:05:54.794Z,19.30
2018-08-04T05:08:23.416Z,19.30
2018-08-04T05:10:51.992Z,19.40
2018-08-04T05:13:20.606Z,19.50
2018-08-04T05:15:49.093Z,19.60
2018-08-04T05:18:17.617Z,19.70
2018-08-04T05:20:46.163Z,19.90
2018-08-04T05:23:14.687Z,20.00
2018-08-04T05:25:43.215Z,20.20
2018-08-04T05:28:11.809Z,20.30
2018-08-04T05:30:40.525Z,20.40
2018-08-04T05:33:09.146Z,20.60
2018-08-04T05:35:38.080Z,20.70
2018-08-04T05:38:06.711Z,20.90
2018-08-04T05:40:35.417Z,21.00
2018-08-04T05:43:04.070Z,21.20
2018-08-04T05:45:32.820Z,21.30
2018-08-04T05:48:01.362Z,21.70
2018-08-04T05:50:29.953Z,21.90
2018-08-04T05:52:59.459Z,22.00
2018-08-04T05:55:28.021Z,22.20
2018-08-04T05:57:56.576Z,22.30
2018-08-04T06:00:25.138Z,22.50
2018-08-04T06:02:53.755Z,22.60
2018-08-04T06:05:22.379Z,22.80
2018-08-04T06:07:51.024Z,23.00
2018-08-04T06:10:19.688Z,23.10
2018-08-04T06:12:48.223Z,23.30
2018-08-04T06:15:16.793Z,23.50
2018-08-04T06:17:45.344Z,23.60
2018-08-04T06:20:13.959Z,23.80
2018-08-04T06:22:42.731Z,24.00
2018-08-04T06:25:11.397Z,24.20
2018-08-04T06:27:40.031Z,24.40
2018-08-04T06:30:09.796Z,24.60
2018-08-04T06:32:38.428Z,24.70
2018-08-04T06:35:07.144Z,24.90
2018-08-04T06:37:35.852Z,25.10
2018-08-04T06:40:04.903Z,25.30
2018-08-04T06:42:33.689Z,25.40
2018-08-04T06:45:02.330Z,25.60
2018-08-04T06:47:30.813Z,25.70
2018-08-04T06:49:59.408Z,25.90
2018-08-04T06:52:28.012Z,26.10
2018-08-04T06:54:56.603Z,26.20
2018-08-04T06:57:25.224Z,26.30
2018-08-04T06:59:53.807Z,26.40
2018-08-04T07:02:22.334Z,26.50
2018-08-04T07:04:50.978Z,26.60
2018-08-04T07:07:19.487Z,26.70
2018-08-04T07:09:48.066Z,26.90
2018-08-04T07:12:16.621Z,27.10
2018-08-04T07:14:45.224Z,27.20
2018-08-04T07:17:13.849Z,27.30
2018-08-04T07:19:42.466Z,27.50
2018-08-04T07:22:11.149Z,27.60
2018-08-04T07:24:39.748Z,27.80
2018-08-04T07:27:08.404Z,27.90
2018-08-04T07:29:37.069Z,28.00
2018-08-04T07:32:05.741Z,28.00
2018-08-04T07:34:34.512Z,28.00
2018-08-04T07:37:03.800Z,28.10
2018-08-04T07:39:32.361Z,28.30
2018-08-04T07:42:00.952Z,28.40
2018-08-04T07:44:29.541Z,28.50
2018-08-04T07:46:58.112Z,28.50
2018-08-04T07:49:26.746Z,28.70
2018-08-04T07:51:55.357Z,28.90
2018-08-04T07:54:23.870Z,29.00
2018-08-04T07:56:52.389Z,29.10
2018-08-04T07:59:20.944Z,29.30
2018-08-04T08:01:49.498Z,29.40
2018-08-04T08:04:18.035Z,29.50
2018-08-04T08:06:46.660Z,29.70
2018-08-04T08:09:15.494Z,29.90
2018-08-04T08:11:44.051Z,30.10
2018-08-04T08:14:12.630Z,30.20
2018-08-04T08:16:41.278Z,30.40
2018-08-04T08:19:10.371Z,30.60
2018-08-04T08:21:39.062Z,30.70
2018-08-04T08:24:07.792Z,31.20
2018-08-04T08:26:37.437Z,31.40
2018-08-04T08:29:06.144Z,31.30
2018-08-04T08:31:34.794Z,31.20
2018-08-04T08:34:03.679Z,31.40
2018-08-04T08:36:32.626Z,31.50
2018-08-04T08:39:01.226Z,31.60
2018-08-04T08:41:32.051Z,31.90
2018-08-04T08:44:00.610Z,32.20
2018-08-04T08:46:29.327Z,32.40
2018-08-04T08:48:57.872Z,32.50
2018-08-04T08:51:26.442Z,32.70
2018-08-04T08:53:55.068Z,32.80
2018-08-04T08:56:23.572Z,32.90
2018-08-04T08:58:52.596Z,32.80
2018-08-04T09:01:21.159Z,33.00
2018-08-04T09:03:49.714Z,33.00
2018-08-04T09:06:18.507Z,33.20
2018-08-04T09:08:47.108Z,33.30
2018-08-04T09:11:15.860Z,33.50
2018-08-04T09:13:44.983Z,33.50
2018-08-04T09:16:13.788Z,33.50
2018-08-04T09:18:42.789Z,33.60
2018-08-04T09:21:12.261Z,33.70
2018-08-04T09:23:41.062Z,33.60
2018-08-04T09:26:09.899Z,33.70
2018-08-04T09:28:38.612Z,33.80
2018-08-04T09:31:07.256Z,33.80
2018-08-04T09:33:36.117Z,33.90
2018-08-04T09:36:04.812Z,34.10
2018-08-04T09:38:33.528Z,34.10
2018-08-04T09:41:02.223Z,33.80
2018-08-04T09:43:31.420Z,33.50
2018-08-04T09:46:00.117Z,33.30
2018-08-04T09:48:28.946Z,33.10
2018-08-04T09:50:57.730Z,33.10
2018-08-04T09:53:26.525Z,33.10
2018-08-04T09:55:55.259Z,33.10
2018-08-04T09:58:24.016Z,33.20
2018-08-04T10:00:57.892Z,33.20
2018-08-04T10:03:26.951Z,33.20
2018-08-04T10:05:55.844Z,33.30
2018-08-04T10:08:24.863Z,33.40
2018-08-04T10:10:53.704Z,33.50
2018-08-04T10:13:22.750Z,33.60
2018-08-04T10:15:51.784Z,33.50
2018-08-04T10:18:22.041Z,33.50
2018-08-04T10:20:52.294Z,33.50
2018-08-04T10:23:22.787Z,33.40
2018-08-04T10:25:52.059Z,33.20
2018-08-04T10:28:22.229Z,33.00
2018-08-04T10:30:52.533Z,32.70
2018-08-04T10:33:22.849Z,32.50
2018-08-04T10:35:52.647Z,32.30
2018-08-04T10:38:23.091Z,32.20
2018-08-04T10:40:52.742Z,32.10
2018-08-04T10:43:22.329Z,32.10
2018-08-04T10:45:54.290Z,32.10
2018-08-04T10:48:23.548Z,32.10
2018-08-04T10:50:52.103Z,32.10
2018-08-04T10:53:20.659Z,32.10
2018-08-04T10:55:49.156Z,32.20
2018-08-04T10:58:17.666Z,32.40
2018-08-04T11:00:46.179Z,32.60
2018-08-04T11:03:14.711Z,32.70
2018-08-04T11:05:43.265Z,32.80
2018-08-04T11:08:16.923Z,32.80
2018-08-04T11:10:47.695Z,32.70
2018-08-04T11:13:18.026Z,32.60
2018-08-04T11:15:48.071Z,32.50
2018-08-04T11:18:17.757Z,32.30
2018-08-04T11:20:48.376Z,32.30
2018-08-04T11:23:17.592Z,32.30
2018-08-04T11:25:46.645Z,32.30
2018-08-04T11:28:16.390Z,32.40
2018-08-04T11:30:45.466Z,32.50
2018-08-04T11:33:15.749Z,32.60
2018-08-04T11:35:45.496Z,32.80
2018-08-04T11:38:14.540Z,33.10
2018-08-04T11:40:44.415Z,33.20
2018-08-04T11:43:15.369Z,33.30
2018-08-04T11:45:46.306Z,33.20
2018-08-04T11:48:16.607Z,33.10
2018-08-04T11:50:47.963Z,32.90
2018-08-04T11:53:17.665Z,32.80
2018-08-04T11:55:46.696Z,32.80
2018-08-04T11:58:15.632Z,32.80
2018-08-04T12:00:45.739Z,32.80
2018-08-04T12:03:15.324Z,32.80
2018-08-04T12:05:47.025Z,32.90
2018-08-04T12:08:16.127Z,33.10
2018-08-04T12:10:46.195Z,33.00
2018-08-04T12:13:16.608Z,33.00
2018-08-04T12:15:46.257Z,32.90
2018-08-04T12:18:15.397Z,32.80
2018-08-04T12:20:44.961Z,32.80
2018-08-04T12:23:14.176Z,32.80
2018-08-04T12:25:43.276Z,32.70
2018-08-04T12:28:12.267Z,32.70
2018-08-04T12:30:41.209Z,32.60
2018-08-04T12:33:10.051Z,32.60
2018-08-04T12:35:38.858Z,32.60
2018-08-04T12:38:07.787Z,32.50
2018-08-04T12:40:36.784Z,32.50
2018-08-04T12:43:06.203Z,32.40
2018-08-04T12:45:35.371Z,32.30
2018-08-04T12:48:04.751Z,32.30
2018-08-04T12:50:34.437Z,32.20
2018-08-04T12:53:03.611Z,32.10
2018-08-04T12:55:32.293Z,32.20
2018-08-04T12:58:01.556Z,32.50
2018-08-04T13:00:30.419Z,32.70
2018-08-04T13:02:59.403Z,33.00
2018-08-04T13:05:28.314Z,33.20
2018-08-04T13:07:57.270Z,33.30
2018-08-04T13:10:26.009Z,33.40
2018-08-04T13:12:55.729Z,33.50
2018-08-04T13:15:24.633Z,33.60
2018-08-04T13:18:00.937Z,33.60
2018-08-04T13:20:37.640Z,33.70
2018-08-04T13:23:06.281Z,33.90
2018-08-04T13:25:34.829Z,34.00
2018-08-04T13:28:03.410Z,34.10
2018-08-04T13:30:32.319Z,34.10
2018-08-04T13:33:00.899Z,34.10
2018-08-04T13:35:29.507Z,34.20
2018-08-04T13:37:58.144Z,34.30
2018-08-04T13:40:27.953Z,34.30
2018-08-04T13:42:56.786Z,34.40
2018-08-04T13:45:25.590Z,34.40
2018-08-04T13:47:54.254Z,34.30
2018-08-04T13:50:22.900Z,34.10
2018-08-04T13:52:51.460Z,33.80
2018-08-04T13:55:20.946Z,33.70
2018-08-04T13:57:50.712Z,33.60
2018-08-04T14:00:20.855Z,33.40
2018-08-04T14:02:51.213Z,33.40
2018-08-04T14:05:21.003Z,33.50
2018-08-04T14:07:51.466Z,33.60
2018-08-04T14:10:20.715Z,33.60
2018-08-04T14:12:49.800Z,33.80
2018-08-04T14:15:18.594Z,33.80
2018-08-04T14:17:47.242Z,33.90
2018-08-04T14:20:15.936Z,34.00
2018-08-04T14:22:44.979Z,34.10
2018-08-04T14:25:14.793Z,34.00
2018-08-04T14:27:45.372Z,33.70
2018-08-04T14:30:14.162Z,33.40
2018-08-04T14:32:42.991Z,33.30
2018-08-04T14:35:11.677Z,33.40
2018-08-04T14:37:40.375Z,33.40
2018-08-04T14:40:09.155Z,33.60
2018-08-04T14:42:37.894Z,33.60
2018-08-04T14:45:06.659Z,33.70
2018-08-04T14:47:35.322Z,33.70
2018-08-04T14:50:04.151Z,33.70
2018-08-04T14:52:41.746Z,33.80
2018-08-04T14:55:12.468Z,33.70
2018-08-04T14:57:41.831Z,33.70
2018-08-04T15:00:11.270Z,33.60
2018-08-04T15:02:40.049Z,33.50
2018-08-04T15:05:09.091Z,33.50
2018-08-04T15:07:37.835Z,33.60
2018-08-04T15:10:07.474Z,33.50
2018-08-04T15:12:36.470Z,33.20
2018-08-04T15:15:08.188Z,32.90
2018-08-04T15:17:37.059Z,32.70
2018-08-04T15:20:06.444Z,32.70
2018-08-04T15:22:35.396Z,32.70
2018-08-04T15:25:04.121Z,32.60
2018-08-04T15:27:33.831Z,32.70
2018-08-04T15:30:02.951Z,32.60
2018-08-04T15:32:32.214Z,32.60
2018-08-04T15:35:03.150Z,32.50
2018-08-04T15:37:34.575Z,32.30
2018-08-04T15:40:04.403Z,32.10
2018-08-04T15:42:44.730Z,31.80
2018-08-04T15:45:20.468Z,31.70
2018-08-04T15:47:55.637Z,31.70
2018-08-04T15:50:25.095Z,31.50
2018-08-04T15:52:53.982Z,31.30
2018-08-04T15:55:22.787Z,31.20
2018-08-04T15:57:51.737Z,31.30
2018-08-04T16:00:21.084Z,31.30
2018-08-04T16:02:51.119Z,31.40
2018-08-04T16:05:21.375Z,31.50
2018-08-04T16:07:50.540Z,31.50
2018-08-04T16:10:19.995Z,31.50
2018-08-04T16:12:48.597Z,31.50
2018-08-04T16:15:17.143Z,31.50
2018-08-04T16:17:45.846Z,31.40
2018-08-04T16:20:16.004Z,31.30
2018-08-04T16:22:44.686Z,31.10
2018-08-04T16:25:13.943Z,30.80
2018-08-04T16:27:42.663Z,30.50
2018-08-04T16:30:11.615Z,30.40
2018-08-04T16:32:41.018Z,30.30
2018-08-04T16:35:10.145Z,30.30
2018-08-04T16:37:38.690Z,30.30
2018-08-04T16:40:08.889Z,30.30
2018-08-04T16:42:38.881Z,30.20
2018-08-04T16:45:07.838Z,30.10
2018-08-04T16:47:36.607Z,30.10
2018-08-04T16:50:05.572Z,30.00
2018-08-04T16:52:34.414Z,30.00
2018-08-04T16:55:03.464Z,30.00
2018-08-04T16:57:32.834Z,29.90
2018-08-04T17:00:01.606Z,29.90
2018-08-04T17:02:30.372Z,29.80
2018-08-04T17:04:59.120Z,29.70
2018-08-04T17:07:27.687Z,29.70
2018-08-04T17:09:56.283Z,29.70
2018-08-04T17:12:24.870Z,29.60
2018-08-04T17:14:53.444Z,29.60
2018-08-04T17:17:21.963Z,29.20
2018-08-04T17:19:50.498Z,28.50
2018-08-04T17:22:19.151Z,28.10
2018-08-04T17:24:47.711Z,27.80
2018-08-04T17:27:16.272Z,27.50
2018-08-04T17:29:44.827Z,27.40
2018-08-04T17:32:13.424Z,27.30
2018-08-04T17:34:42.007Z,27.30
2018-08-04T17:37:10.522Z,27.40
2018-08-04T17:39:39.094Z,27.30
2018-08-04T17:42:07.663Z,27.30
2018-08-04T17:44:36.412Z,27.40
2018-08-04T17:47:05.822Z,27.40
2018-08-04T17:49:34.462Z,27.50
2018-08-04T17:52:03.010Z,27.50
2018-08-04T17:54:31.573Z,27.50
2018-08-04T17:57:00.215Z,27.60
2018-08-04T17:59:28.790Z,27.70
2018-08-04T18:01:57.298Z,27.60
2018-08-04T18:04:25.883Z,27.60
2018-08-04T18:06:54.471Z,27.50
2018-08-04T18:09:23.550Z,27.50
2018-08-04T18:11:52.245Z,27.40
2018-08-04T18:14:21.100Z,27.30
2018-08-04T18:16:49.793Z,27.20
2018-08-04T18:19:18.560Z,27.10
2018-08-04T18:21:47.425Z,27.10
2018-08-04T18:24:16.551Z,27.10
2018-08-04T18:26:45.471Z,27.00
2018-08-04T18:29:14.081Z,27.00
2018-08-04T18:31:42.710Z,26.90
2018-08-04T18:34:11.384Z,26.90
2018-08-04T18:36:40.202Z,26.90
2018-08-04T18:39:09.671Z,26.80
2018-08-04T18:41:38.355Z,26.80
2018-08-04T18:44:07.316Z,26.70
2018-08-04T18:46:36.177Z,26.70
2018-08-04T18:49:05.112Z,26.60
2018-08-04T18:51:33.992Z,26.40
2018-08-04T18:54:03.038Z,26.40
2018-08-04T18:56:32.065Z,26.40
2018-08-04T18:59:01.036Z,26.30
2018-08-04T19:01:30.333Z,26.20
2018-08-04T19:03:58.879Z,26.10
2018-08-04T19:06:28.228Z,25.90
2018-08-04T19:08:57.242Z,25.80
2018-08-04T19:11:26.993Z,25.80
2018-08-04T19:13:56.220Z,25.60
2018-08-04T19:16:26.290Z,25.50
2018-08-04T19:18:56.312Z,25.40
2018-08-04T19:21:26.259Z,25.30
2018-08-04T19:23:55.546Z,25.30
2018-08-04T19:26:24.145Z,25.20
2018-08-04T19:28:53.249Z,25.20
2018-08-04T19:31:22.547Z,25.20
2018-08-04T19:33:51.108Z,25.20
2018-08-04T19:36:19.679Z,25.30
2018-08-04T19:38:48.226Z,25.30
2018-08-04T19:41:16.805Z,25.30
2018-08-04T19:43:45.326Z,25.10
2018-08-04T19:46:13.856Z,25.10
2018-08-04T19:48:42.436Z,25.10
2018-08-04T19:51:10.976Z,25.00
2018-08-04T19:53:39.569Z,25.00
2018-08-04T19:56:08.198Z,24.90
2018-08-04T19:58:36.744Z,24.90
2018-08-04T20:01:05.295Z,24.90
2018-08-04T20:03:33.836Z,24.80
2018-08-04T20:06:02.421Z,24.90
2018-08-04T20:08:31.164Z,24.90
2018-08-04T20:10:59.735Z,24.90
2018-08-04T20:13:28.269Z,24.90
2018-08-04T20:15:56.922Z,24.90
2018-08-04T20:18:25.606Z,24.90
2018-08-04T20:20:54.163Z,25.00
2018-08-04T20:23:22.740Z,25.00
2018-08-04T20:25:51.343Z,25.00
2018-08-04T20:28:19.926Z,25.10
2018-08-04T20:30:48.459Z,25.10
2018-08-04T20:33:17.002Z,25.10
2018-08-04T20:35:46.836Z,25.10
2018-08-04T20:38:15.399Z,25.10
2018-08-04T20:40:44.000Z,25.10
2018-08-04T20:43:12.827Z,25.10
2018-08-04T20:45:41.387Z,25.00
2018-08-04T20:48:09.976Z,24.90
2018-08-04T20:50:38.552Z,24.90
2018-08-04T20:53:07.752Z,24.90
2018-08-04T20:55:36.400Z,24.90
2018-08-04T20:58:04.966Z,24.80
2018-08-04T21:00:37.957Z,24.80
2018-08-04T21:03:07.084Z,24.80
2018-08-04T21:05:35.644Z,24.70
2018-08-04T21:08:04.318Z,24.70
2018-08-04T21:10:32.892Z,24.60
2018-08-04T21:13:01.444Z,24.60
2018-08-04T21:15:29.943Z,24.50
2018-08-04T21:17:58.510Z,24.40
2018-08-04T21:20:27.006Z,24.40
2018-08-04T21:22:55.572Z,24.30
2018-08-04T21:25:24.098Z,24.30
2018-08-04T21:27:52.646Z,24.30
2018-08-04T21:30:21.392Z,24.20
2018-08-04T21:32:50.267Z,24.30
2018-08-04T21:35:19.782Z,24.20
2018-08-04T21:37:48.410Z,24.20
2018-08-04T21:40:16.948Z,24.20
2018-08-04T21:42:45.501Z,24.10
2018-08-04T21:45:14.137Z,24.00
2018-08-04T21:47:42.702Z,23.90
2018-08-04T21:50:11.231Z,23.80
2018-08-04T21:52:39.792Z,23.80
2018-08-04T21:55:08.333Z,23.60
2018-08-04T21:57:36.914Z,23.50
2018-08-04T22:00:09.203Z,23.50
2018-08-04T22:02:38.412Z,23.30
2018-08-04T22:05:07.028Z,23.30
2018-08-04T22:07:47.975Z,23.30
2018-08-04T22:10:16.690Z,23.20
2018-08-04T22:12:45.352Z,23.10
2018-08-04T22:15:15.116Z,23.10
2018-08-04T22:17:43.817Z,23.00
2018-08-04T22:20:13.679Z,23.00
2018-08-04T22:22:42.590Z,23.00
2018-08-04T22:25:12.788Z,22.90
2018-08-04T22:27:41.655Z,22.90
2018-08-04T22:30:12.084Z,22.90
2018-08-04T22:32:41.018Z,22.90
2018-08-04T22:35:09.610Z,22.90
2018-08-04T22:37:38.674Z,22.90
2018-08-04T22:40:07.924Z,22.90
2018-08-04T22:42:36.807Z,22.80
2018-08-04T22:45:16.657Z,22.80
2018-08-04T22:47:45.448Z,22.90
2018-08-04T22:50:13.964Z,22.90
2018-08-04T22:52:42.504Z,22.90
2018-08-04T22:55:11.026Z,22.90
2018-08-04T22:57:39.559Z,22.90
2018-08-04T23:00:08.109Z,22.80
2018-08-04T23:02:36.663Z,22.80
2018-08-04T23:05:05.325Z,22.70
2018-08-04T23:07:33.839Z,22.60
2018-08-04T23:10:02.372Z,22.50
2018-08-04T23:12:30.915Z,22.50
2018-08-04T23:14:59.490Z,22.30
2018-08-04T23:17:28.020Z,22.30
2018-08-04T23:19:56.550Z,22.20
2018-08-04T23:22:25.048Z,22.10
2018-08-04T23:24:53.585Z,22.00
2018-08-04T23:27:22.147Z,21.90
2018-08-04T23:29:50.649Z,21.90
2018-08-04T23:32:19.183Z,21.70
2018-08-04T23:34:47.696Z,21.60
2018-08-04T23:37:16.182Z,21.60
2018-08-04T23:39:44.709Z,21.50
2018-08-04T23:42:13.188Z,21.50
2018-08-04T23:44:41.736Z,21.40
2018-08-04T23:47:10.258Z,21.40
2018-08-04T23:49:38.800Z,21.40
2018-08-04T23:52:07.557Z,21.40
2018-08-04T23:54:36.108Z,21.40
2018-08-04T23:57:04.742Z,21.40
2018-08-04T23:59:33.377Z,21.40
